createdAt,value
2022-09-13T00:01:44.967Z,2.10
2022-09-13T00:04:13.773Z,1.90
2022-09-13T00:06:42.559Z,1.70
2022-09-13T00:09:11.220Z,1.30
2022-09-13T00:11:40.109Z,1.60
2022-09-13T00:14:08.906Z,1.70
2022-09-13T00:16:37.775Z,1.70
2022-09-13T00:19:06.790Z,1.80
2022-09-13T00:21:36.399Z,1.90
2022-09-13T00:24:06.202Z,1.70
2022-09-13T00:26:35.001Z,1.70
2022-09-13T00:29:03.778Z,1.90
2022-09-13T00:31:32.539Z,1.60
2022-09-13T00:34:01.569Z,1.90
2022-09-13T00:36:30.665Z,1.90
2022-09-13T00:39:01.590Z,2.20
2022-09-13T00:41:30.597Z,2.10
2022-09-13T00:44:02.329Z,2.10
2022-09-13T00:46:49.169Z,2.00
2022-09-13T00:49:30.366Z,2.10
2022-09-13T00:52:11.223Z,2.10
2022-09-13T00:54:46.370Z,2.40
2022-09-13T00:57:18.033Z,2.10
2022-09-13T01:00:12.395Z,1.80
2022-09-13T01:02:46.809Z,2.40
2022-09-13T01:05:21.325Z,2.00
2022-09-13T01:07:51.482Z,1.50
2022-09-13T01:10:20.871Z,2.00
2022-09-13T01:12:56.230Z,2.20
2022-09-13T01:15:24.998Z,1.90
2022-09-13T01:17:55.411Z,2.00
2022-09-13T01:20:46.435Z,1.80
2022-09-13T01:23:32.122Z,2.00
2022-09-13T01:26:58.565Z,2.10
2022-09-13T01:29:54.690Z,1.90
2022-09-13T01:33:02.755Z,1.90
2022-09-13T01:35:55.826Z,2.40
2022-09-13T01:38:59.052Z,2.50
2022-09-13T01:42:17.923Z,2.10
2022-09-13T01:44:46.616Z,2.30
2022-09-13T01:47:44.287Z,1.90
2022-09-13T01:50:38.660Z,2.30
2022-09-13T01:53:30.794Z,2.00
2022-09-13T01:56:05.223Z,2.30
2022-09-13T01:59:14.588Z,1.90
2022-09-13T02:02:15.890Z,1.80
2022-09-13T02:04:54.649Z,1.90
2022-09-13T02:07:44.532Z,2.20
2022-09-13T02:10:34.408Z,1.80
2022-09-13T02:13:10.872Z,1.80
2022-09-13T02:15:48.874Z,2.20
2022-09-13T02:18:41.551Z,2.20
2022-09-13T02:21:23.542Z,2.00
2022-09-13T02:23:58.736Z,2.10
2022-09-13T02:26:30.839Z,2.20
2022-09-13T02:29:08.120Z,2.20
2022-09-13T02:32:09.481Z,2.40
2022-09-13T02:34:47.134Z,2.50
2022-09-13T02:37:16.274Z,2.40
2022-09-13T02:39:54.253Z,2.70
2022-09-13T02:42:32.206Z,2.50
2022-09-13T02:45:02.101Z,2.10
2022-09-13T02:47:57.921Z,2.60
2022-09-13T02:50:53.838Z,1.90
2022-09-13T02:53:54.179Z,2.30
2022-09-13T02:56:58.292Z,2.40
2022-09-13T02:59:27.572Z,2.50
2022-09-13T03:02:05.832Z,2.60
2022-09-13T03:04:35.742Z,2.40
2022-09-13T03:07:04.931Z,2.50
2022-09-13T03:09:34.753Z,2.40
2022-09-13T03:12:23.067Z,2.40
2022-09-13T03:14:57.096Z,2.50
2022-09-13T03:17:55.380Z,3.10
2022-09-13T03:21:20.179Z,3.00
2022-09-13T03:24:17.946Z,2.80
2022-09-13T03:26:59.634Z,3.80
2022-09-13T03:29:53.122Z,2.50
2022-09-13T03:35:18.834Z,3.20
2022-09-13T03:38:19.889Z,2.90
2022-09-13T03:41:10.787Z,2.80
2022-09-13T03:43:49.429Z,3.50
2022-09-13T03:46:30.077Z,3.40
2022-09-13T03:49:05.374Z,3.00
2022-09-13T03:51:36.070Z,3.00
2022-09-13T03:54:11.699Z,3.40
2022-09-13T03:56:40.792Z,3.00
2022-09-13T03:59:09.698Z,3.50
2022-09-13T04:01:38.359Z,3.60
2022-09-13T04:04:07.026Z,3.20
2022-09-13T04:06:36.070Z,3.80
2022-09-13T04:09:04.739Z,4.10
2022-09-13T04:11:33.405Z,3.30
2022-09-13T04:14:03.778Z,3.50
2022-09-13T04:16:32.612Z,3.80
2022-09-13T04:19:01.548Z,4.10
2022-09-13T04:21:30.641Z,4.80
2022-09-13T04:23:59.271Z,4.70
2022-09-13T04:26:27.830Z,4.70
2022-09-13T04:28:56.387Z,5.00
2022-09-13T04:31:25.055Z,5.00
2022-09-13T04:33:55.115Z,4.50
2022-09-13T04:36:23.793Z,4.10
2022-09-13T04:38:52.465Z,5.60
2022-09-13T04:41:21.268Z,5.30
2022-09-13T04:43:51.091Z,4.30
2022-09-13T04:46:20.242Z,4.60
2022-09-13T04:48:51.314Z,4.30
2022-09-13T04:51:22.047Z,6.30
2022-09-13T04:53:55.585Z,5.10
2022-09-13T04:56:25.380Z,5.70
2022-09-13T04:58:56.320Z,5.70
2022-09-13T05:01:27.917Z,5.10
2022-09-13T05:03:56.945Z,4.90
2022-09-13T05:06:25.642Z,5.40
2022-09-13T05:08:56.321Z,5.80
2022-09-13T05:11:27.658Z,5.30
2022-09-13T05:14:01.452Z,5.40
2022-09-13T05:16:33.441Z,5.00
2022-09-13T05:19:02.722Z,5.90
2022-09-13T05:21:31.988Z,6.40
2022-09-13T05:24:00.798Z,5.90
2022-09-13T05:26:31.530Z,6.90
2022-09-13T05:29:01.082Z,5.80
2022-09-13T05:31:39.594Z,6.40
2022-09-13T05:34:15.406Z,6.90
2022-09-13T05:36:44.612Z,6.20
2022-09-13T05:42:07.058Z,5.80
2022-09-13T05:44:35.792Z,5.80
2022-09-13T05:47:04.839Z,6.30
2022-09-13T05:49:33.638Z,6.10
2022-09-13T05:52:02.824Z,6.20
2022-09-13T05:54:31.511Z,7.20
2022-09-13T05:57:00.511Z,6.40
2022-09-13T05:59:29.221Z,6.20
2022-09-13T06:01:59.049Z,6.90
2022-09-13T06:04:28.402Z,6.80
2022-09-13T06:06:56.990Z,8.80
2022-09-13T06:09:25.723Z,8.90
2022-09-13T06:11:54.474Z,6.60
2022-09-13T06:14:23.149Z,6.80
2022-09-13T06:16:51.838Z,7.10
2022-09-13T06:19:21.253Z,6.90
2022-09-13T06:21:49.932Z,7.40
2022-09-13T06:24:18.731Z,7.70
2022-09-13T06:26:47.504Z,8.50
2022-09-13T06:29:16.407Z,7.20
2022-09-13T06:31:45.572Z,7.50
2022-09-13T06:34:16.552Z,8.00
2022-09-13T06:36:45.221Z,8.70
2022-09-13T06:39:14.231Z,6.50
2022-09-13T06:41:43.021Z,8.60
2022-09-13T06:44:11.804Z,6.50
2022-09-13T06:46:41.131Z,12.40
2022-09-13T06:49:10.363Z,8.80
2022-09-13T06:51:39.098Z,8.20
2022-09-13T06:54:07.874Z,5.90
2022-09-13T06:56:39.148Z,7.60
2022-09-13T06:59:10.663Z,8.70
2022-09-13T07:01:45.375Z,14.80
2022-09-13T07:04:17.527Z,8.10
2022-09-13T07:06:49.469Z,8.20
2022-09-13T07:09:21.805Z,9.90
2022-09-13T07:11:53.878Z,8.30
2022-09-13T07:14:26.243Z,7.20
2022-09-13T07:16:56.265Z,6.30
2022-09-13T07:19:27.839Z,5.90
2022-09-13T07:21:57.764Z,4.80
2022-09-13T07:24:27.504Z,6.40
2022-09-13T07:26:56.314Z,6.10
2022-09-13T07:29:25.127Z,5.10
2022-09-13T07:31:55.372Z,5.70
2022-09-13T07:34:26.724Z,5.80
2022-09-13T07:36:55.398Z,5.70
2022-09-13T07:39:24.584Z,5.60
2022-09-13T07:41:56.975Z,5.70
2022-09-13T07:44:25.755Z,6.30
2022-09-13T07:46:54.444Z,6.00
2022-09-13T07:49:23.210Z,4.80
2022-09-13T07:51:52.324Z,4.70
2022-09-13T07:54:21.423Z,4.70
2022-09-13T07:56:52.078Z,4.30
2022-09-13T07:59:21.289Z,4.20
2022-09-13T08:01:52.372Z,4.20
2022-09-13T08:04:25.800Z,3.70
2022-09-13T08:06:54.720Z,3.60
2022-09-13T08:09:23.372Z,3.00
2022-09-13T08:11:53.459Z,3.40
2022-09-13T08:14:24.421Z,3.30
2022-09-13T08:16:59.527Z,3.30
2022-09-13T08:19:28.366Z,3.50
2022-09-13T08:21:57.135Z,6.90
2022-09-13T08:24:27.051Z,4.80
2022-09-13T08:26:56.367Z,3.20
2022-09-13T08:29:25.734Z,3.60
2022-09-13T08:31:54.856Z,3.60
2022-09-13T08:34:23.657Z,4.30
2022-09-13T08:36:52.329Z,3.70
2022-09-13T08:39:21.119Z,3.70
2022-09-13T08:42:20.555Z,3.30
2022-09-13T08:44:54.653Z,3.80
2022-09-13T08:47:48.131Z,3.90
2022-09-13T08:53:29.633Z,3.70
2022-09-13T08:56:06.720Z,3.20
2022-09-13T08:59:35.307Z,3.60
2022-09-13T09:02:31.615Z,3.60
2022-09-13T09:05:22.571Z,3.90
2022-09-13T09:08:11.508Z,3.40
2022-09-13T09:10:49.405Z,3.50
2022-09-13T09:13:51.402Z,3.00
2022-09-13T09:17:00.811Z,3.10
2022-09-13T09:19:42.327Z,3.40
2022-09-13T09:22:19.681Z,3.00
2022-09-13T09:24:55.861Z,4.10
2022-09-13T09:27:26.176Z,3.80
2022-09-13T09:29:58.578Z,3.40
2022-09-13T09:32:58.067Z,3.90
2022-09-13T09:36:11.930Z,3.70
2022-09-13T09:41:38.567Z,3.40
2022-09-13T09:44:27.709Z,3.70
2022-09-13T09:47:03.094Z,3.90
2022-09-13T09:50:03.013Z,3.80
2022-09-13T09:52:41.716Z,3.00
2022-09-13T09:55:38.164Z,3.60
2022-09-13T09:58:09.183Z,3.20
2022-09-13T10:00:57.026Z,3.50
2022-09-13T10:03:29.939Z,3.20
2022-09-13T10:09:20.559Z,3.40
2022-09-13T10:11:58.299Z,3.50
2022-09-13T10:14:42.085Z,2.70
2022-09-13T10:17:30.093Z,3.20
2022-09-13T10:20:15.618Z,4.10
2022-09-13T10:22:45.421Z,3.80
2022-09-13T10:25:29.886Z,4.50
2022-09-13T10:28:00.686Z,3.60
2022-09-13T10:30:46.804Z,3.60
2022-09-13T10:33:41.698Z,3.70
2022-09-13T10:36:48.625Z,3.90
2022-09-13T10:39:21.539Z,3.00
2022-09-13T10:42:02.483Z,3.40
2022-09-13T10:44:47.016Z,3.60
2022-09-13T10:47:51.850Z,3.10
2022-09-13T10:50:36.225Z,2.90
2022-09-13T10:53:24.430Z,2.70
2022-09-13T10:55:57.916Z,2.90
2022-09-13T10:58:26.731Z,3.00
2022-09-13T11:01:04.500Z,2.90
2022-09-13T11:03:42.139Z,3.20
2022-09-13T11:06:34.882Z,3.10
2022-09-13T11:09:15.865Z,3.00
2022-09-13T11:12:18.650Z,3.10
2022-09-13T11:15:34.732Z,3.70
2022-09-13T11:18:37.634Z,3.70
2022-09-13T11:21:16.155Z,4.20
2022-09-13T11:24:23.181Z,3.30
2022-09-13T11:27:09.576Z,2.90
2022-09-13T11:30:12.140Z,2.70
2022-09-13T11:33:14.430Z,3.00
2022-09-13T11:36:28.396Z,2.90
2022-09-13T11:39:33.276Z,2.50
2022-09-13T11:42:29.811Z,2.60
2022-09-13T11:45:52.216Z,3.10
2022-09-13T11:49:02.860Z,3.00
2022-09-13T11:51:51.258Z,2.70
2022-09-13T11:54:48.351Z,2.60
2022-09-13T11:57:29.519Z,2.30
2022-09-13T12:00:04.970Z,2.10
2022-09-13T12:03:00.478Z,1.90
2022-09-13T12:05:58.354Z,2.10
2022-09-13T12:08:37.407Z,2.50
2022-09-13T12:11:22.551Z,2.50
2022-09-13T12:14:00.025Z,2.50
2022-09-13T12:16:41.937Z,2.40
2022-09-13T12:19:45.745Z,2.60
2022-09-13T12:22:16.189Z,3.20
2022-09-13T12:24:47.524Z,2.70
2022-09-13T12:27:52.421Z,2.30
2022-09-13T12:30:41.673Z,3.10
2022-09-13T12:33:16.965Z,3.50
2022-09-13T12:36:18.021Z,3.00
2022-09-13T12:39:06.582Z,3.10
2022-09-13T12:41:50.097Z,3.30
2022-09-13T12:44:54.341Z,2.90
2022-09-13T12:47:48.915Z,3.60
2022-09-13T12:50:43.495Z,3.50
2022-09-13T12:53:49.290Z,4.10
2022-09-13T12:56:57.073Z,3.60
2022-09-13T12:59:56.494Z,2.40
2022-09-13T13:02:39.513Z,2.20
2022-09-13T13:05:38.004Z,2.70
2022-09-13T13:08:30.024Z,2.40
2022-09-13T13:11:08.451Z,2.10
2022-09-13T13:13:53.794Z,2.20
2022-09-13T13:16:34.242Z,2.00
2022-09-13T13:19:37.219Z,2.40
2022-09-13T13:22:43.136Z,1.90
2022-09-13T13:25:56.272Z,2.40
2022-09-13T13:28:43.592Z,2.60
2022-09-13T13:31:24.763Z,3.50
2022-09-13T13:33:58.858Z,4.70
2022-09-13T13:36:43.966Z,4.00
2022-09-13T13:39:24.696Z,3.90
2022-09-13T13:41:59.686Z,4.10
2022-09-13T13:44:32.222Z,3.90
2022-09-13T13:47:10.046Z,4.10
2022-09-13T13:49:41.121Z,3.80
2022-09-13T13:52:10.345Z,4.00
2022-09-13T13:55:00.913Z,3.70
2022-09-13T13:58:10.852Z,3.00
2022-09-13T14:00:50.380Z,3.60
2022-09-13T14:03:43.111Z,4.00
2022-09-13T14:06:37.717Z,2.90
2022-09-13T14:09:45.936Z,2.90
2022-09-13T14:12:32.337Z,3.40
2022-09-13T14:15:46.491Z,3.50
2022-09-13T14:18:47.532Z,3.60
2022-09-13T14:21:27.661Z,3.90
2022-09-13T14:24:24.812Z,3.30
2022-09-13T14:26:59.059Z,4.00
2022-09-13T14:29:28.261Z,4.50
2022-09-13T14:32:07.626Z,3.50
2022-09-13T14:34:39.359Z,3.50
2022-09-13T14:37:19.513Z,3.60
2022-09-13T14:40:08.907Z,3.50
2022-09-13T14:42:47.694Z,3.00
2022-09-13T14:45:31.953Z,3.10
2022-09-13T14:48:08.589Z,3.20
2022-09-13T14:51:00.597Z,2.60
2022-09-13T14:53:34.879Z,2.70
2022-09-13T14:56:14.853Z,2.70
2022-09-13T14:58:59.086Z,2.80
2022-09-13T15:01:35.334Z,2.90
2022-09-13T15:04:06.249Z,2.80
2022-09-13T15:06:41.356Z,2.60
2022-09-13T15:09:12.627Z,3.30
2022-09-13T15:11:54.086Z,3.50
2022-09-13T15:14:39.918Z,3.20
2022-09-13T15:17:12.041Z,3.40
2022-09-13T15:20:02.422Z,4.00
2022-09-13T15:22:34.591Z,4.50
2022-09-13T15:25:03.597Z,4.60
2022-09-13T15:27:48.107Z,5.50
2022-09-13T15:30:31.589Z,5.40
2022-09-13T15:33:09.944Z,5.20
2022-09-13T15:35:45.006Z,5.50
2022-09-13T15:38:31.957Z,4.70
2022-09-13T15:41:10.932Z,4.70
2022-09-13T15:43:40.251Z,4.30
2022-09-13T15:46:15.586Z,4.50
2022-09-13T15:48:57.219Z,4.30
2022-09-13T15:51:26.480Z,4.60
2022-09-13T15:53:55.770Z,4.90
2022-09-13T15:56:43.178Z,4.20
2022-09-13T15:59:22.920Z,4.10
2022-09-13T16:01:58.579Z,3.80
2022-09-13T16:04:27.485Z,4.00
2022-09-13T16:06:56.202Z,4.60
2022-09-13T16:09:27.576Z,4.40
2022-09-13T16:11:56.172Z,5.00
2022-09-13T16:14:25.472Z,4.90
2022-09-13T16:16:56.513Z,5.30
2022-09-13T16:19:25.704Z,5.30
2022-09-13T16:21:54.419Z,5.10
2022-09-13T16:24:24.187Z,5.60
2022-09-13T16:26:54.536Z,6.00
2022-09-13T16:29:31.627Z,5.90
2022-09-13T16:32:01.967Z,6.00
2022-09-13T16:34:33.533Z,6.00
2022-09-13T16:37:06.075Z,5.80
2022-09-13T16:39:34.969Z,6.20
2022-09-13T16:42:05.209Z,6.70
2022-09-13T16:44:33.933Z,6.00
2022-09-13T16:47:02.709Z,7.00
2022-09-13T16:49:36.664Z,6.60
2022-09-13T16:52:20.540Z,7.30
2022-09-13T16:54:51.406Z,6.90
2022-09-13T16:57:21.421Z,7.70
2022-09-13T16:59:52.882Z,7.00
2022-09-13T17:02:21.902Z,7.00
2022-09-13T17:04:51.080Z,7.70
2022-09-13T17:07:20.378Z,7.50
2022-09-13T17:09:49.295Z,7.20
2022-09-13T17:12:19.781Z,7.80
2022-09-13T17:14:50.880Z,7.60
2022-09-13T17:17:20.469Z,7.60
2022-09-13T17:19:49.645Z,6.90
2022-09-13T17:22:18.642Z,7.10
2022-09-13T17:24:47.265Z,7.60
2022-09-13T17:27:15.940Z,7.50
2022-09-13T17:29:44.593Z,7.10
2022-09-13T17:32:13.226Z,8.60
2022-09-13T17:34:41.978Z,8.60
2022-09-13T17:37:10.656Z,9.20
2022-09-13T17:39:39.389Z,9.00
2022-09-13T17:42:08.146Z,7.40
2022-09-13T17:44:36.696Z,6.90
2022-09-13T17:47:06.644Z,6.90
2022-09-13T17:49:38.326Z,7.00
2022-09-13T17:52:08.243Z,7.90
2022-09-13T17:54:36.868Z,7.40
2022-09-13T17:57:05.707Z,8.20
2022-09-13T17:59:34.535Z,8.00
2022-09-13T18:02:03.353Z,9.50
2022-09-13T18:04:32.214Z,8.20
2022-09-13T18:07:00.838Z,8.30
2022-09-13T18:09:29.390Z,7.60
2022-09-13T18:11:58.096Z,8.30
2022-09-13T18:14:27.953Z,8.30
2022-09-13T18:16:58.161Z,8.60
2022-09-13T18:19:44.765Z,9.80
2022-09-13T18:22:15.328Z,11.00
2022-09-13T18:24:46.875Z,10.80
2022-09-13T18:27:15.529Z,10.60
2022-09-13T18:29:44.202Z,11.00
2022-09-13T18:32:12.873Z,10.80
2022-09-13T18:34:42.395Z,10.00
2022-09-13T18:37:11.031Z,9.30
2022-09-13T18:39:39.703Z,9.70
2022-09-13T18:42:08.401Z,7.30
2022-09-13T18:44:37.120Z,7.30
2022-09-13T18:47:06.182Z,6.50
2022-09-13T18:49:39.368Z,6.50
2022-09-13T18:52:09.348Z,6.30
2022-09-13T18:54:38.161Z,5.80
2022-09-13T18:57:11.606Z,5.90
2022-09-13T18:59:40.355Z,5.60
2022-09-13T19:02:13.659Z,7.00
2022-09-13T19:04:42.962Z,6.30
2022-09-13T19:07:37.863Z,8.60
2022-09-13T19:10:13.093Z,8.20
2022-09-13T19:12:44.744Z,7.20
2022-09-13T19:15:16.332Z,7.40
2022-09-13T19:17:45.173Z,7.30
2022-09-13T19:20:13.977Z,7.10
2022-09-13T19:22:49.116Z,7.10
2022-09-13T19:25:23.004Z,7.00
2022-09-13T19:27:52.976Z,14.20
2022-09-13T19:30:21.636Z,6.70
2022-09-13T19:32:50.313Z,6.30
2022-09-13T19:35:19.025Z,6.00
2022-09-13T19:37:47.607Z,5.90
2022-09-13T19:40:16.328Z,5.90
2022-09-13T19:42:45.052Z,6.00
2022-09-13T19:45:13.905Z,6.30
2022-09-13T19:48:34.279Z,6.70
2022-09-13T19:50:31.491Z,6.70
2022-09-13T19:53:00.187Z,5.70
2022-09-13T19:55:29.325Z,5.60
2022-09-13T19:57:58.312Z,5.80
2022-09-13T20:00:27.140Z,5.60
2022-09-13T20:02:55.915Z,6.00
2022-09-13T20:05:28.008Z,6.60
2022-09-13T20:07:57.145Z,6.70
2022-09-13T20:10:26.000Z,6.00
2022-09-13T20:12:56.190Z,6.00
2022-09-13T20:15:31.433Z,6.00
2022-09-13T20:18:00.591Z,6.00
2022-09-13T20:20:29.367Z,5.70
2022-09-13T20:22:58.205Z,6.30
2022-09-13T20:25:26.998Z,5.60
2022-09-13T20:27:55.812Z,5.90
2022-09-13T20:30:24.564Z,5.90
2022-09-13T20:32:54.903Z,5.40
2022-09-13T20:35:23.841Z,5.20
2022-09-13T20:37:52.821Z,6.00
2022-09-13T20:40:21.906Z,5.60
2022-09-13T20:42:51.930Z,5.00
2022-09-13T20:45:21.435Z,5.40
2022-09-13T20:47:50.267Z,5.80
2022-09-13T20:50:20.642Z,5.80
2022-09-13T20:52:49.389Z,6.40
2022-09-13T20:55:18.153Z,5.50
2022-09-13T20:57:48.450Z,5.80
2022-09-13T21:00:17.893Z,6.70
2022-09-13T21:02:46.838Z,5.70
2022-09-13T21:05:15.803Z,5.90
2022-09-13T21:08:03.270Z,6.00
2022-09-13T21:10:32.436Z,6.20
2022-09-13T21:13:01.631Z,5.70
2022-09-13T21:15:30.423Z,6.40
2022-09-13T21:17:59.441Z,6.80
2022-09-13T21:20:28.127Z,5.90
2022-09-13T21:22:56.835Z,6.50
2022-09-13T21:25:25.817Z,5.70
2022-09-13T21:27:54.574Z,6.40
2022-09-13T21:30:23.680Z,6.40
2022-09-13T21:32:52.804Z,6.00
2022-09-13T21:35:21.598Z,6.80
2022-09-13T21:37:51.199Z,6.90
2022-09-13T21:40:19.999Z,7.20
2022-09-13T21:42:48.717Z,6.80
2022-09-13T21:45:17.475Z,7.20
2022-09-13T21:47:46.580Z,6.90
2022-09-13T21:50:16.179Z,7.20
2022-09-13T21:52:45.067Z,6.70
2022-09-13T21:55:14.057Z,7.20
2022-09-13T21:57:44.874Z,6.80
2022-09-13T22:00:15.498Z,6.30
2022-09-13T22:02:44.224Z,6.60
2022-09-13T22:05:13.109Z,7.40
2022-09-13T22:07:41.892Z,7.10
2022-09-13T22:10:10.769Z,7.10
2022-09-13T22:12:39.977Z,7.50
2022-09-13T22:15:10.112Z,7.00
2022-09-13T22:17:38.808Z,6.50
2022-09-13T22:20:08.023Z,7.20
2022-09-13T22:22:36.667Z,7.20
2022-09-13T22:25:06.066Z,6.80
2022-09-13T22:27:35.601Z,7.10
2022-09-13T22:30:06.096Z,8.00
2022-09-13T22:32:34.792Z,7.40
2022-09-13T22:35:03.614Z,7.80
2022-09-13T22:37:32.462Z,7.70
2022-09-13T22:40:02.119Z,7.90
2022-09-13T22:42:31.133Z,7.30
2022-09-13T22:44:59.762Z,7.40
2022-09-13T22:47:28.652Z,7.40
2022-09-13T22:49:57.338Z,7.60
2022-09-13T22:52:26.024Z,7.80
2022-09-13T22:54:54.666Z,7.80
2022-09-13T22:57:23.399Z,7.70
2022-09-13T22:59:52.105Z,7.60
2022-09-13T23:02:21.069Z,8.30
2022-09-13T23:04:49.762Z,9.00
2022-09-13T23:07:18.974Z,7.30
2022-09-13T23:09:48.368Z,7.80
2022-09-13T23:12:17.268Z,7.60
2022-09-13T23:14:46.245Z,8.00
2022-09-13T23:17:14.960Z,8.00
2022-09-13T23:19:43.528Z,6.80
2022-09-13T23:22:12.223Z,8.10
2022-09-13T23:24:41.108Z,8.00
2022-09-13T23:27:09.858Z,7.70
2022-09-13T23:29:38.599Z,7.90
2022-09-13T23:32:08.542Z,8.20
2022-09-13T23:34:37.384Z,8.10
2022-09-13T23:37:06.083Z,8.70
2022-09-13T23:39:34.869Z,7.50
2022-09-13T23:42:04.596Z,7.30
2022-09-13T23:44:33.463Z,7.40
2022-09-13T23:47:02.275Z,7.70
2022-09-13T23:49:31.040Z,7.50
2022-09-13T23:51:59.844Z,8.10
2022-09-13T23:54:28.640Z,7.20
2022-09-13T23:56:57.523Z,7.90
2022-09-13T23:59:26.210Z,7.50
